createdAt,value
2022-10-18T00:00:06.325Z,9.06
2022-10-18T00:02:33.003Z,9.23
2022-10-18T00:04:59.637Z,9.21
2022-10-18T00:07:26.316Z,9.18
2022-10-18T00:09:52.875Z,9.05
2022-10-18T00:12:19.395Z,9.03
2022-10-18T00:14:49.671Z,9.02
2022-10-18T00:17:16.283Z,9.06
2022-10-18T00:19:42.775Z,9.08
2022-10-18T00:22:09.292Z,9.06
2022-10-18T00:24:35.816Z,9.06
2022-10-18T00:27:02.372Z,8.97
2022-10-18T00:29:28.957Z,9.11
2022-10-18T00:31:55.462Z,9.15
2022-10-18T00:34:21.961Z,9.14
2022-10-18T00:36:48.678Z,9.15
2022-10-18T00:39:20.299Z,9.04
2022-10-18T00:41:47.758Z,9.02
2022-10-18T00:44:17.471Z,9.01
2022-10-18T00:46:46.736Z,8.93
2022-10-18T00:49:20.271Z,8.82
2022-10-18T00:51:48.659Z,8.73
2022-10-18T00:54:17.375Z,8.51
2022-10-18T00:56:45.028Z,8.34
2022-10-18T00:59:15.188Z,8.12
2022-10-18T01:01:41.941Z,7.98
2022-10-18T01:04:08.553Z,7.99
2022-10-18T01:06:46.480Z,8.07
2022-10-18T01:09:24.007Z,8.14
2022-10-18T01:12:09.631Z,8.03
2022-10-18T01:14:57.168Z,8.09
2022-10-18T01:17:44.607Z,8.08
2022-10-18T01:20:36.755Z,8.13
2022-10-18T01:23:16.016Z,8.21
2022-10-18T01:26:17.159Z,8.38
2022-10-18T01:29:14.776Z,8.24
2022-10-18T01:31:57.614Z,8.03
2022-10-18T01:34:31.490Z,8.01
2022-10-18T01:37:01.230Z,8.16
2022-10-18T01:39:35.346Z,8.27
2022-10-18T01:42:06.177Z,8.29
2022-10-18T01:44:35.002Z,8.21
2022-10-18T01:47:01.810Z,8.15
2022-10-18T01:49:28.305Z,8.13
2022-10-18T01:51:54.861Z,8.16
2022-10-18T01:54:31.053Z,8.17
2022-10-18T01:57:12.446Z,8.11
2022-10-18T02:00:17.844Z,8.03
2022-10-18T02:02:56.964Z,8.02
2022-10-18T02:05:41.561Z,8.02
2022-10-18T02:08:24.354Z,8.02
2022-10-18T02:11:05.766Z,7.82
2022-10-18T02:13:47.258Z,7.76
2022-10-18T02:16:19.045Z,7.67
2022-10-18T02:18:52.139Z,7.66
2022-10-18T02:21:21.289Z,7.70
2022-10-18T02:23:49.171Z,7.77
2022-10-18T02:26:16.585Z,7.77
2022-10-18T02:28:45.602Z,7.71
2022-10-18T02:31:14.874Z,7.63
2022-10-18T02:33:55.943Z,7.65
2022-10-18T02:36:28.811Z,7.66
2022-10-18T02:39:02.833Z,7.64
2022-10-18T02:41:31.399Z,7.68
2022-10-18T02:43:58.231Z,7.67
2022-10-18T02:46:24.903Z,7.64
2022-10-18T02:48:51.663Z,7.57
2022-10-18T02:51:18.234Z,7.53
2022-10-18T02:53:44.744Z,7.46
2022-10-18T02:56:11.261Z,7.46
2022-10-18T02:58:37.794Z,7.52
2022-10-18T03:01:04.375Z,7.56
2022-10-18T03:03:30.891Z,7.55
2022-10-18T03:05:57.441Z,7.53
2022-10-18T03:08:24.013Z,7.47
2022-10-18T03:10:50.617Z,7.40
2022-10-18T03:13:17.239Z,7.37
2022-10-18T03:15:43.895Z,7.37
2022-10-18T03:18:10.803Z,7.33
2022-10-18T03:20:37.451Z,7.32
2022-10-18T03:23:04.077Z,7.34
2022-10-18T03:25:31.019Z,7.37
2022-10-18T03:27:57.531Z,7.43
2022-10-18T03:30:24.091Z,7.38
2022-10-18T03:32:50.747Z,7.33
2022-10-18T03:35:17.267Z,7.33
2022-10-18T03:37:43.800Z,7.42
2022-10-18T03:40:10.653Z,7.36
2022-10-18T03:42:37.187Z,7.45
2022-10-18T03:45:04.459Z,7.42
2022-10-18T03:47:31.267Z,7.30
2022-10-18T03:49:57.903Z,7.24
2022-10-18T03:52:24.634Z,7.04
2022-10-18T03:54:51.191Z,6.95
2022-10-18T03:57:17.713Z,6.85
2022-10-18T03:59:44.304Z,6.80
2022-10-18T04:02:10.804Z,6.71
2022-10-18T04:04:37.326Z,6.69
2022-10-18T04:07:03.863Z,6.69
2022-10-18T04:09:30.477Z,6.68
2022-10-18T04:11:57.072Z,6.73
2022-10-18T04:14:25.617Z,6.74
2022-10-18T04:16:52.156Z,6.76
2022-10-18T04:19:18.885Z,6.73
2022-10-18T04:21:45.397Z,6.71
2022-10-18T04:24:11.915Z,6.61
2022-10-18T04:26:38.444Z,6.49
2022-10-18T04:29:06.886Z,6.47
2022-10-18T04:31:33.453Z,6.44
2022-10-18T04:33:59.952Z,6.41
2022-10-18T04:36:26.510Z,6.41
2022-10-18T04:38:53.062Z,6.41
2022-10-18T04:41:20.730Z,6.39
2022-10-18T04:43:47.408Z,6.42
2022-10-18T04:46:13.997Z,6.44
2022-10-18T04:48:40.582Z,6.41
2022-10-18T04:51:07.203Z,6.38
2022-10-18T04:53:33.708Z,6.28
2022-10-18T04:56:00.304Z,6.23
2022-10-18T04:58:26.842Z,6.16
2022-10-18T05:00:53.421Z,6.11
2022-10-18T05:03:20.183Z,6.06
2022-10-18T05:06:03.016Z,6.01
2022-10-18T05:08:30.514Z,5.97
2022-10-18T05:10:57.104Z,5.96
2022-10-18T05:13:23.870Z,5.94
2022-10-18T05:15:50.410Z,5.92
2022-10-18T05:18:16.990Z,5.87
2022-10-18T05:20:43.697Z,5.75
2022-10-18T05:23:10.959Z,5.67
2022-10-18T05:25:42.159Z,5.54
2022-10-18T05:28:34.536Z,5.60
2022-10-18T05:30:56.130Z,5.67
2022-10-18T05:33:22.847Z,5.72
2022-10-18T05:35:49.410Z,5.74
2022-10-18T05:38:15.978Z,5.70
2022-10-18T05:40:42.564Z,5.75
2022-10-18T05:43:09.085Z,5.80
2022-10-18T05:45:35.638Z,5.78
2022-10-18T05:48:02.202Z,5.89
2022-10-18T05:50:29.218Z,5.88
2022-10-18T05:53:02.751Z,5.85
2022-10-18T05:55:39.325Z,5.90
2022-10-18T05:58:05.884Z,5.92
2022-10-18T06:00:32.506Z,5.99
2022-10-18T06:03:00.376Z,6.06
2022-10-18T06:05:27.680Z,6.09
2022-10-18T06:07:54.317Z,6.20
2022-10-18T06:10:20.908Z,6.32
2022-10-18T06:12:47.378Z,6.41
2022-10-18T06:15:14.231Z,6.41
2022-10-18T06:17:40.804Z,6.44
2022-10-18T06:20:08.414Z,6.53
2022-10-18T06:22:34.928Z,6.59
2022-10-18T06:25:01.557Z,6.59
2022-10-18T06:27:28.210Z,6.60
2022-10-18T06:29:54.706Z,6.65
2022-10-18T06:32:21.236Z,6.75
2022-10-18T06:34:47.787Z,6.78
2022-10-18T06:37:14.270Z,6.86
2022-10-18T06:39:41.243Z,6.88
2022-10-18T06:42:07.871Z,7.02
2022-10-18T06:44:34.399Z,6.98
2022-10-18T06:47:01.332Z,7.08
2022-10-18T06:49:27.840Z,7.16
2022-10-18T06:51:54.533Z,7.37
2022-10-18T06:54:21.170Z,7.50
2022-10-18T06:56:47.674Z,7.58
2022-10-18T06:59:14.390Z,7.67
2022-10-18T07:01:41.031Z,7.72
2022-10-18T07:04:07.602Z,7.77
2022-10-18T07:06:34.150Z,7.77
2022-10-18T07:09:02.909Z,7.87
2022-10-18T07:11:29.516Z,7.85
2022-10-18T07:14:04.050Z,7.96
2022-10-18T07:16:32.530Z,8.15
2022-10-18T07:18:59.180Z,8.27
2022-10-18T07:21:26.509Z,8.54
2022-10-18T07:23:53.581Z,8.55
2022-10-18T07:26:25.879Z,8.52
2022-10-18T07:28:56.008Z,8.60
2022-10-18T07:31:22.958Z,8.65
2022-10-18T07:33:49.702Z,8.66
2022-10-18T07:36:16.592Z,8.89
2022-10-18T07:38:43.180Z,8.95
2022-10-18T07:41:12.454Z,9.08
2022-10-18T07:43:42.852Z,9.12
2022-10-18T07:46:09.427Z,9.23
2022-10-18T07:48:35.998Z,9.45
2022-10-18T07:51:03.003Z,9.47
2022-10-18T07:53:30.271Z,9.43
2022-10-18T07:56:02.414Z,9.50
2022-10-18T07:58:32.677Z,9.58
2022-10-18T08:01:07.843Z,9.60
2022-10-18T08:03:35.593Z,9.78
2022-10-18T08:06:03.003Z,9.93
2022-10-18T08:08:30.391Z,10.00
2022-10-18T08:11:03.707Z,10.04
2022-10-18T08:13:30.813Z,10.07
2022-10-18T08:16:15.507Z,10.15
2022-10-18T08:18:42.215Z,10.30
2022-10-18T08:21:10.874Z,10.32
2022-10-18T08:23:38.304Z,10.47
2022-10-18T08:26:08.001Z,10.52
2022-10-18T08:28:37.998Z,10.62
2022-10-18T08:31:05.938Z,10.60
2022-10-18T08:33:34.039Z,10.57
2022-10-18T08:36:05.694Z,10.61
2022-10-18T08:38:36.359Z,10.61
2022-10-18T08:41:20.482Z,10.69
2022-10-18T08:44:12.135Z,10.78
2022-10-18T08:46:46.190Z,10.80
2022-10-18T08:49:46.590Z,11.00
2022-10-18T08:52:29.816Z,11.15
2022-10-18T08:55:02.234Z,11.37
2022-10-18T08:57:30.620Z,11.29
2022-10-18T08:59:57.565Z,11.25
2022-10-18T09:02:50.857Z,11.52
2022-10-18T09:05:34.683Z,11.60
2022-10-18T09:08:31.054Z,11.63
2022-10-18T09:11:09.628Z,11.60
2022-10-18T09:13:36.148Z,11.62
2022-10-18T09:16:06.106Z,11.82
2022-10-18T09:18:44.593Z,11.83
2022-10-18T09:21:22.829Z,11.93
2022-10-18T09:23:49.541Z,12.06
2022-10-18T09:26:18.147Z,12.14
2022-10-18T09:29:16.305Z,12.28
2022-10-18T09:31:56.135Z,12.42
2022-10-18T09:34:38.891Z,12.78
2022-10-18T09:37:12.458Z,13.00
2022-10-18T09:39:39.895Z,13.08
2022-10-18T09:42:28.538Z,13.29
2022-10-18T09:45:01.289Z,13.32
2022-10-18T09:47:35.761Z,13.12
2022-10-18T09:50:15.523Z,12.97
2022-10-18T09:53:26.739Z,13.26
2022-10-18T09:56:03.666Z,13.37
2022-10-18T09:58:44.240Z,13.29
2022-10-18T10:01:13.209Z,13.51
2022-10-18T10:03:40.199Z,13.60
2022-10-18T10:06:12.888Z,13.84
2022-10-18T10:08:53.753Z,13.94
2022-10-18T10:11:45.386Z,14.42
2022-10-18T10:14:25.854Z,14.54
2022-10-18T10:17:02.462Z,14.47
2022-10-18T10:19:31.287Z,14.51
2022-10-18T10:22:07.263Z,14.64
2022-10-18T10:24:51.774Z,14.64
2022-10-18T10:27:24.883Z,14.72
2022-10-18T10:29:56.479Z,14.96
2022-10-18T10:34:58.798Z,15.05
2022-10-18T10:37:30.326Z,15.34
2022-10-18T10:40:18.765Z,15.08
2022-10-18T10:43:33.121Z,15.38
2022-10-18T10:46:03.115Z,15.31
2022-10-18T10:48:40.800Z,15.45
2022-10-18T10:51:10.239Z,15.42
2022-10-18T10:53:42.596Z,15.36
2022-10-18T10:56:28.035Z,15.33
2022-10-18T10:58:57.152Z,15.38
2022-10-18T11:01:33.495Z,14.93
2022-10-18T11:04:04.072Z,14.94
2022-10-18T11:06:46.563Z,14.95
2022-10-18T11:09:50.939Z,15.28
2022-10-18T11:12:43.520Z,15.61
2022-10-18T11:15:10.508Z,15.75
2022-10-18T11:17:46.671Z,15.67
2022-10-18T11:20:23.085Z,15.68
2022-10-18T11:22:49.546Z,15.67
2022-10-18T11:25:16.799Z,15.50
2022-10-18T11:28:06.067Z,15.50
2022-10-18T11:31:08.362Z,15.37
2022-10-18T11:34:08.574Z,15.61
2022-10-18T11:36:54.678Z,16.05
2022-10-18T11:39:37.814Z,15.86
2022-10-18T11:42:17.875Z,16.19
2022-10-18T11:45:15.284Z,16.47
2022-10-18T11:48:17.142Z,16.48
2022-10-18T11:50:43.967Z,16.69
2022-10-18T11:53:32.200Z,16.56
2022-10-18T11:56:27.218Z,16.33
2022-10-18T11:59:18.153Z,16.36
2022-10-18T12:01:53.845Z,16.60
2022-10-18T12:04:41.813Z,16.55
2022-10-18T12:07:21.183Z,16.55
2022-10-18T12:09:55.959Z,16.87
2022-10-18T12:12:30.137Z,17.08
2022-10-18T12:15:01.814Z,17.05
2022-10-18T12:17:49.629Z,16.80
2022-10-18T12:20:23.847Z,16.59
2022-10-18T12:22:54.152Z,16.70
2022-10-18T12:25:22.298Z,16.63
2022-10-18T12:28:06.476Z,16.66
2022-10-18T12:30:59.974Z,16.96
2022-10-18T12:33:30.731Z,17.21
2022-10-18T12:36:22.472Z,17.32
2022-10-18T12:39:37.580Z,17.50
2022-10-18T12:42:42.212Z,17.23
2022-10-18T12:45:28.926Z,17.11
2022-10-18T12:48:05.109Z,16.94
2022-10-18T12:50:34.916Z,17.28
2022-10-18T12:53:26.578Z,17.31
2022-10-18T12:55:54.330Z,17.31
2022-10-18T12:58:28.857Z,17.32
2022-10-18T13:01:07.282Z,17.50
2022-10-18T13:03:51.310Z,17.48
2022-10-18T13:06:17.947Z,17.36
2022-10-18T13:08:46.019Z,17.21
2022-10-18T13:11:12.540Z,17.24
2022-10-18T13:16:49.555Z,17.48
2022-10-18T13:19:22.150Z,17.30
2022-10-18T13:21:59.152Z,17.38
2022-10-18T13:24:39.524Z,17.39
2022-10-18T13:27:42.129Z,17.37
2022-10-18T13:30:17.456Z,17.31
2022-10-18T13:33:16.398Z,17.09
2022-10-18T13:35:44.923Z,17.21
2022-10-18T13:38:32.889Z,17.23
2022-10-18T13:41:13.036Z,17.27
2022-10-18T13:44:19.632Z,17.16
2022-10-18T13:46:46.111Z,17.08
2022-10-18T13:49:48.413Z,16.94
2022-10-18T13:52:52.875Z,16.77
2022-10-18T13:55:28.450Z,16.73
2022-10-18T13:57:59.367Z,16.78
2022-10-18T14:00:38.113Z,16.66
2022-10-18T14:03:57.023Z,16.68
2022-10-18T14:06:28.904Z,16.55
2022-10-18T14:09:40.305Z,16.48
2022-10-18T14:12:44.264Z,16.38
2022-10-18T14:15:18.187Z,16.36
2022-10-18T14:17:46.993Z,16.35
2022-10-18T14:20:40.079Z,16.43
2022-10-18T14:23:25.552Z,16.36
2022-10-18T14:26:05.943Z,16.29
2022-10-18T14:28:54.948Z,16.24
2022-10-18T14:31:20.215Z,16.11
2022-10-18T14:33:57.053Z,16.03
2022-10-18T14:36:27.182Z,15.96
2022-10-18T14:38:57.201Z,15.86
2022-10-18T14:41:32.929Z,15.74
2022-10-18T14:44:14.396Z,15.49
2022-10-18T14:46:43.671Z,15.29
2022-10-18T14:49:13.181Z,15.16
2022-10-18T14:51:41.987Z,15.10
2022-10-18T14:56:46.556Z,14.96
2022-10-18T14:59:19.104Z,14.87
2022-10-18T15:02:11.716Z,14.74
2022-10-18T15:04:38.240Z,14.65
2022-10-18T15:07:07.697Z,14.57
2022-10-18T15:09:36.946Z,14.49
2022-10-18T15:12:06.579Z,14.42
2022-10-18T15:14:34.911Z,14.34
2022-10-18T15:17:32.422Z,14.21
2022-10-18T15:20:05.942Z,14.10
2022-10-18T15:22:33.847Z,14.04
2022-10-18T15:25:23.743Z,13.92
2022-10-18T15:27:55.605Z,13.78
2022-10-18T15:30:28.575Z,13.62
2022-10-18T15:32:57.795Z,13.49
2022-10-18T15:35:33.067Z,13.35
2022-10-18T15:38:05.016Z,13.26
2022-10-18T15:40:35.276Z,13.16
2022-10-18T15:43:05.837Z,13.07
2022-10-18T15:45:45.379Z,12.91
2022-10-18T15:48:14.503Z,12.78
2022-10-18T15:50:48.561Z,12.68
2022-10-18T15:53:21.085Z,12.57
2022-10-18T15:55:59.634Z,12.42
2022-10-18T15:58:39.184Z,12.22
2022-10-18T16:01:14.277Z,12.04
2022-10-18T16:03:41.478Z,11.89
2022-10-18T16:06:12.350Z,11.77
2022-10-18T16:08:44.341Z,11.67
2022-10-18T16:11:22.032Z,11.58
2022-10-18T16:13:48.995Z,11.53
2022-10-18T16:16:18.561Z,11.50
2022-10-18T16:18:45.447Z,11.50
2022-10-18T16:21:25.375Z,11.45
2022-10-18T16:23:52.243Z,11.37
2022-10-18T16:26:19.647Z,11.27
2022-10-18T16:28:46.901Z,11.26
2022-10-18T16:31:19.641Z,11.22
2022-10-18T16:33:47.747Z,11.13
2022-10-18T16:36:18.923Z,11.06
2022-10-18T16:38:46.390Z,11.03
2022-10-18T16:41:16.139Z,11.02
2022-10-18T16:43:45.027Z,11.08
2022-10-18T16:46:32.780Z,11.03
2022-10-18T16:48:59.885Z,10.95
2022-10-18T16:51:26.819Z,10.90
2022-10-18T16:53:54.282Z,10.92
2022-10-18T16:56:32.282Z,10.99
2022-10-18T16:58:59.776Z,10.98
2022-10-18T17:01:26.556Z,10.98
2022-10-18T17:03:54.105Z,10.97
2022-10-18T17:06:29.305Z,10.95
2022-10-18T17:08:56.936Z,10.93
2022-10-18T17:11:25.524Z,10.92
2022-10-18T17:13:52.684Z,10.99
2022-10-18T17:19:02.499Z,11.05
2022-10-18T17:21:29.900Z,11.09
2022-10-18T17:24:01.501Z,11.15
2022-10-18T17:26:29.970Z,11.20
2022-10-18T17:29:01.218Z,11.26
2022-10-18T17:31:29.021Z,11.28
2022-10-18T17:33:55.754Z,11.26
2022-10-18T17:36:22.597Z,11.19
2022-10-18T17:38:53.515Z,11.13
2022-10-18T17:41:20.305Z,11.01
2022-10-18T17:43:49.216Z,10.93
2022-10-18T17:46:18.755Z,10.91
2022-10-18T17:48:45.627Z,10.91
2022-10-18T17:51:15.069Z,10.93
2022-10-18T17:53:41.879Z,10.91
2022-10-18T17:56:08.733Z,10.85
2022-10-18T17:58:38.027Z,10.80
2022-10-18T18:01:17.174Z,10.78
2022-10-18T18:03:44.099Z,10.72
2022-10-18T18:06:22.390Z,10.70
2022-10-18T18:08:49.978Z,10.69
2022-10-18T18:11:17.623Z,10.66
2022-10-18T18:13:44.287Z,10.70
2022-10-18T18:16:19.733Z,10.66
2022-10-18T18:18:48.482Z,10.61
2022-10-18T18:21:15.301Z,10.56
2022-10-18T18:23:42.079Z,10.48
2022-10-18T18:26:08.908Z,10.46
2022-10-18T18:28:39.383Z,10.39
2022-10-18T18:31:14.911Z,10.38
2022-10-18T18:33:42.445Z,10.36
2022-10-18T18:36:09.656Z,10.28
2022-10-18T18:38:38.187Z,10.26
2022-10-18T18:41:13.584Z,10.32
2022-10-18T18:43:42.783Z,10.34
2022-10-18T18:46:09.939Z,10.35
2022-10-18T18:48:36.953Z,10.25
2022-10-18T18:51:05.957Z,10.21
2022-10-18T18:53:32.486Z,10.11
2022-10-18T18:56:07.678Z,10.01
2022-10-18T18:58:36.872Z,9.93
2022-10-18T19:01:17.445Z,9.93
2022-10-18T19:03:45.691Z,9.86
2022-10-18T19:06:16.425Z,9.83
2022-10-18T19:08:46.587Z,9.83
2022-10-18T19:11:19.023Z,9.98
2022-10-18T19:13:45.598Z,10.14
2022-10-18T19:16:19.788Z,10.16
2022-10-18T19:19:02.656Z,10.17
2022-10-18T19:21:32.071Z,10.20
2022-10-18T19:24:00.224Z,10.20
2022-10-18T19:26:28.577Z,10.32
2022-10-18T19:28:55.356Z,10.41
2022-10-18T19:31:22.915Z,10.60
2022-10-18T19:33:59.317Z,10.78
2022-10-18T19:36:26.791Z,10.85
2022-10-18T19:38:53.322Z,10.75
2022-10-18T19:41:20.018Z,10.74
2022-10-18T19:43:46.600Z,10.72
2022-10-18T19:46:13.136Z,10.63
2022-10-18T19:48:39.766Z,10.51
2022-10-18T19:51:09.622Z,10.58
2022-10-18T19:53:36.775Z,10.65
2022-10-18T19:56:05.515Z,10.74
2022-10-18T19:58:32.500Z,10.82
2022-10-18T20:01:00.316Z,10.82
2022-10-18T20:03:30.314Z,10.88
2022-10-18T20:06:01.361Z,10.92
2022-10-18T20:08:30.371Z,10.91
2022-10-18T20:11:00.928Z,10.84
2022-10-18T20:13:27.545Z,10.77
2022-10-18T20:15:54.431Z,10.76
2022-10-18T20:18:21.018Z,10.71
2022-10-18T20:20:48.564Z,10.65
2022-10-18T20:23:16.589Z,10.63
2022-10-18T20:25:43.540Z,10.62
2022-10-18T20:28:10.130Z,10.54
2022-10-18T20:30:36.787Z,10.56
2022-10-18T20:33:03.424Z,10.57
2022-10-18T20:35:29.938Z,10.64
2022-10-18T20:37:56.447Z,10.75
2022-10-18T20:40:22.957Z,10.86
2022-10-18T20:42:51.733Z,10.98
2022-10-18T20:45:18.356Z,11.04
2022-10-18T20:47:44.901Z,11.01
2022-10-18T20:50:11.660Z,11.08
2022-10-18T20:52:38.189Z,11.22
2022-10-18T20:55:05.148Z,11.22
2022-10-18T20:57:34.306Z,11.25
2022-10-18T21:00:03.760Z,11.26
2022-10-18T21:02:30.257Z,11.17
2022-10-18T21:04:56.815Z,11.09
2022-10-18T21:07:23.296Z,10.99
2022-10-18T21:09:50.154Z,10.88
2022-10-18T21:12:16.669Z,10.81
2022-10-18T21:14:43.205Z,10.80
2022-10-18T21:17:09.733Z,10.77
2022-10-18T21:19:36.496Z,10.89
2022-10-18T21:22:03.213Z,11.10
2022-10-18T21:24:30.442Z,11.34
2022-10-18T21:26:57.030Z,11.58
2022-10-18T21:29:27.213Z,11.68
2022-10-18T21:31:55.799Z,11.79
2022-10-18T21:34:22.454Z,11.80
2022-10-18T21:36:49.064Z,11.77
2022-10-18T21:39:18.995Z,11.83
2022-10-18T21:41:46.191Z,11.89
2022-10-18T21:44:13.074Z,11.81
2022-10-18T21:46:40.238Z,11.69
2022-10-18T21:49:07.291Z,11.59
2022-10-18T21:51:33.879Z,11.48
2022-10-18T21:54:00.440Z,11.42
2022-10-18T21:56:29.934Z,11.23
2022-10-18T21:58:57.465Z,11.07
2022-10-18T22:01:29.866Z,10.96
2022-10-18T22:03:56.884Z,10.65
2022-10-18T22:06:24.599Z,10.42
2022-10-18T22:08:56.557Z,10.63
2022-10-18T22:11:32.361Z,10.82
2022-10-18T22:13:59.064Z,11.24
2022-10-18T22:16:26.294Z,11.60
2022-10-18T22:18:56.535Z,11.79
2022-10-18T22:21:23.030Z,11.88
2022-10-18T22:23:52.406Z,11.95
2022-10-18T22:26:20.281Z,11.91
2022-10-18T22:28:47.775Z,11.86
2022-10-18T22:31:20.349Z,11.85
2022-10-18T22:33:47.704Z,11.90
2022-10-18T22:36:14.308Z,11.90
2022-10-18T22:38:40.857Z,11.92
2022-10-18T22:41:09.540Z,11.88
2022-10-18T22:43:37.820Z,11.89
2022-10-18T22:46:12.635Z,11.87
2022-10-18T22:48:39.890Z,11.85
2022-10-18T22:51:06.786Z,11.77
2022-10-18T22:53:34.794Z,11.73
2022-10-18T22:56:02.036Z,11.71
2022-10-18T22:58:28.894Z,11.80
2022-10-18T23:01:06.952Z,11.88
2022-10-18T23:03:33.989Z,11.96
2022-10-18T23:06:01.046Z,11.94
2022-10-18T23:08:28.214Z,11.96
2022-10-18T23:10:57.408Z,11.99
2022-10-18T23:13:25.493Z,11.98
2022-10-18T23:15:52.286Z,11.99
2022-10-18T23:18:20.580Z,11.99
2022-10-18T23:20:47.105Z,12.01
2022-10-18T23:23:13.827Z,12.06
2022-10-18T23:25:40.656Z,12.07
2022-10-18T23:28:07.534Z,12.10
2022-10-18T23:30:34.357Z,12.14
2022-10-18T23:33:01.001Z,12.15
2022-10-18T23:35:28.805Z,12.19
2022-10-18T23:37:55.305Z,12.21
2022-10-18T23:40:21.828Z,12.20
2022-10-18T23:42:48.352Z,12.18
2022-10-18T23:45:14.909Z,12.14
2022-10-18T23:47:41.410Z,12.12
2022-10-18T23:50:08.344Z,12.07
2022-10-18T23:52:34.890Z,12.06
2022-10-18T23:55:01.489Z,12.00
2022-10-18T23:57:28.081Z,11.98
2022-10-18T23:59:54.705Z,11.95
